Pagrindinis puslapis
METAR-TAF:

METAR-TAF

Oro uostai :

Takas, Tailandas

platuma: 16-53N, ilguma: 099-09E, Aukštis: 121 m

METAR: trūkstamas

Laikas: 21:51 (14:51 UTC)

Prognozė

Ataskaita buvo paskelbta 3 valandos ir 51 minutes, ne 11:00 UTC
Prognozė galioja nuo 19 metu 12 UTC su 20 metu 12 UTC
Vėjas 5 kt iš Rytų
Matomumas: 9000 m
Išsisklaidę debesys ne aukštis 3000 ft

TAF: VTPT 191100Z 1912/2012 10005KT 9000 SCT030

Orai ataskaitas ir orų prognozės (METAR, TAF).

turimą stotys yra geltonos ir raudonos taškus žemėlapyje.

Perkelti pele per norėdami pamatyti stoties vardą.

Tada spustelėkite, norėdami matyti oro stebėjimo ir prognozės.

Norėdami pakeisti žemėlapį: spustelėkite ant žalios mygtukų su juodo kryžiaus žemyn,; žalią mygtuką su brūkšneliu, jei norite nutolinti; arba žalių rodyklių gretimoms žemėlapius.


METAR-TAF: